createdAt,value
2019-02-25T00:02:14.589Z,8.23
2019-02-25T00:07:16.185Z,7.43
2019-02-25T00:12:17.861Z,7.13
2019-02-25T00:17:19.462Z,6.77
2019-02-25T00:22:21.034Z,6.97
2019-02-25T00:27:22.613Z,7.40
2019-02-25T00:32:24.204Z,7.97
2019-02-25T00:37:25.798Z,6.40
2019-02-25T00:42:27.471Z,7.17
2019-02-25T00:47:29.050Z,7.40
2019-02-25T00:52:30.615Z,7.23
2019-02-25T00:57:32.168Z,6.23
2019-02-25T01:02:33.865Z,7.73
2019-02-25T01:07:35.435Z,6.57
2019-02-25T01:12:36.989Z,7.10
2019-02-25T01:17:38.549Z,6.37
2019-02-25T01:22:40.248Z,6.90
2019-02-25T01:27:41.820Z,6.60
2019-02-25T01:32:43.501Z,6.43
2019-02-25T01:37:45.087Z,7.07
2019-02-25T01:42:46.775Z,6.23
2019-02-25T01:47:48.358Z,6.73
2019-02-25T01:52:50.028Z,7.03
2019-02-25T01:57:51.628Z,6.43
2019-02-25T02:02:53.155Z,6.20
2019-02-25T02:07:54.711Z,7.40
2019-02-25T02:12:56.286Z,7.23
2019-02-25T02:17:57.846Z,6.77
2019-02-25T02:22:59.427Z,6.60
2019-02-25T02:28:01.006Z,7.10
2019-02-25T02:33:02.591Z,6.67
2019-02-25T02:38:04.313Z,6.17
2019-02-25T02:43:05.977Z,6.50
2019-02-25T02:48:23.895Z,6.60
2019-02-25T02:53:25.500Z,6.63
2019-02-25T02:58:27.079Z,6.27
2019-02-25T03:03:28.655Z,6.20
2019-02-25T03:08:30.337Z,6.30
2019-02-25T03:13:31.948Z,6.17
2019-02-25T03:18:33.549Z,6.60
2019-02-25T03:23:35.254Z,7.03
2019-02-25T03:28:36.931Z,6.37
2019-02-25T03:33:38.582Z,5.73
2019-02-25T03:38:40.137Z,6.20
2019-02-25T03:43:41.714Z,5.57
2019-02-25T03:48:43.306Z,6.27
2019-02-25T03:53:44.894Z,6.43
2019-02-25T03:58:46.475Z,6.07
2019-02-25T04:03:48.207Z,6.10
2019-02-25T04:08:49.785Z,5.60
2019-02-25T04:13:51.373Z,5.77
2019-02-25T04:18:52.947Z,5.53
2019-02-25T04:23:54.548Z,5.60
2019-02-25T04:28:56.139Z,5.40
2019-02-25T04:33:57.713Z,4.83
2019-02-25T04:38:59.330Z,5.73
2019-02-25T04:44:01.124Z,5.10
2019-02-25T04:49:02.987Z,6.10
2019-02-25T04:54:04.580Z,5.43
2019-02-25T04:59:06.170Z,7.23
2019-02-25T05:04:07.783Z,5.70
2019-02-25T05:09:09.375Z,5.30
2019-02-25T05:14:11.027Z,5.70
2019-02-25T05:19:12.620Z,5.43
2019-02-25T05:24:14.186Z,5.50
2019-02-25T05:29:15.895Z,4.77
2019-02-25T05:34:17.499Z,5.07
2019-02-25T05:39:19.082Z,5.00
2019-02-25T05:44:20.665Z,4.73
2019-02-25T05:49:22.282Z,4.80
2019-02-25T05:54:23.859Z,5.50
2019-02-25T05:59:25.451Z,5.37
2019-02-25T06:04:27.032Z,5.20
2019-02-25T06:09:28.620Z,4.50
2019-02-25T06:14:30.191Z,4.90
2019-02-25T06:19:31.783Z,5.13
2019-02-25T06:24:33.364Z,4.40
2019-02-25T06:29:34.940Z,5.00
2019-02-25T06:34:36.631Z,4.60
2019-02-25T06:39:38.211Z,4.93
2019-02-25T06:44:39.816Z,5.23
2019-02-25T06:49:41.410Z,4.37
2019-02-25T06:54:43.013Z,5.10
2019-02-25T06:59:44.613Z,4.90
2019-02-25T07:04:59.507Z,5.43
2019-02-25T07:10:07.928Z,5.80
2019-02-25T07:15:15.521Z,7.03
2019-02-25T07:20:27.119Z,6.83
2019-02-25T07:25:38.134Z,6.10
2019-02-25T07:30:54.329Z,4.70
2019-02-25T07:36:05.733Z,5.00
2019-02-25T07:41:17.251Z,4.40
2019-02-25T07:46:53.708Z,4.67
2019-02-25T07:52:04.931Z,4.17
2019-02-25T07:57:21.846Z,4.20
2019-02-25T08:02:30.075Z,4.40
2019-02-25T08:07:37.499Z,4.50
2019-02-25T08:12:50.723Z,4.47
2019-02-25T08:18:06.266Z,3.83
2019-02-25T08:23:30.458Z,3.83
2019-02-25T08:28:41.526Z,4.40
2019-02-25T08:34:05.548Z,4.67
2019-02-25T08:39:24.929Z,4.77
2019-02-25T08:44:32.432Z,4.70
2019-02-25T08:49:46.104Z,4.43
2019-02-25T08:54:47.844Z,5.13
2019-02-25T08:59:49.426Z,4.53
2019-02-25T09:04:51.015Z,4.23
2019-02-25T09:09:52.720Z,4.80
2019-02-25T09:14:54.280Z,4.80
2019-02-25T09:19:55.876Z,5.13
2019-02-25T09:24:57.500Z,4.67
2019-02-25T09:29:59.098Z,5.40
2019-02-25T09:35:00.699Z,5.33
2019-02-25T09:40:03.069Z,5.30
2019-02-25T09:45:06.187Z,5.27
2019-02-25T09:50:09.301Z,5.67
2019-02-25T09:55:11.024Z,5.83
2019-02-25T10:00:14.594Z,5.63
2019-02-25T10:05:16.362Z,5.77
2019-02-25T10:10:18.172Z,5.70
2019-02-25T10:15:19.818Z,5.37
2019-02-25T10:20:21.435Z,5.67
2019-02-25T10:25:23.028Z,5.43
2019-02-25T10:30:24.642Z,5.73
2019-02-25T10:35:27.186Z,5.50
2019-02-25T10:40:29.159Z,5.90
2019-02-25T10:45:30.912Z,8.23
2019-02-25T10:50:33.458Z,5.40
2019-02-25T10:55:41.353Z,5.67
2019-02-25T11:00:44.349Z,5.57
2019-02-25T11:05:46.987Z,5.93
2019-02-25T11:11:06.984Z,5.77
2019-02-25T11:16:09.851Z,6.60
2019-02-25T11:21:12.154Z,6.60
2019-02-25T11:26:13.760Z,6.57
2019-02-25T11:31:17.495Z,6.77
2019-02-25T11:36:20.161Z,7.57
2019-02-25T11:41:22.621Z,6.43
2019-02-25T11:46:24.333Z,6.67
2019-02-25T11:51:27.324Z,9.20
2019-02-25T11:56:31.148Z,7.35
2019-02-25T12:01:32.994Z,7.42
2019-02-25T12:06:34.607Z,6.50
2019-02-25T12:11:36.313Z,7.33
2019-02-25T12:16:37.920Z,6.78
2019-02-25T12:21:42.402Z,7.10
2019-02-25T12:26:44.069Z,7.10
2019-02-25T12:31:45.652Z,6.53
2019-02-25T12:36:47.265Z,7.05
2019-02-25T12:41:48.979Z,6.58
2019-02-25T12:46:50.606Z,7.15
2019-02-25T12:51:52.227Z,6.60
2019-02-25T12:56:53.812Z,7.10
2019-02-25T13:01:55.444Z,7.35
2019-02-25T13:06:57.072Z,8.35
2019-02-25T13:11:58.665Z,7.95
2019-02-25T13:17:00.425Z,7.67
2019-02-25T13:22:02.027Z,7.70
2019-02-25T13:27:05.654Z,7.85
2019-02-25T13:32:07.213Z,7.78
2019-02-25T13:37:08.842Z,7.70
2019-02-25T13:42:10.455Z,8.10
2019-02-25T13:47:12.123Z,8.23
2019-02-25T13:52:13.710Z,8.88
2019-02-25T13:57:15.284Z,8.73
2019-02-25T14:02:16.967Z,8.73
2019-02-25T14:07:18.539Z,9.25
2019-02-25T14:12:20.221Z,8.40
2019-02-25T14:17:22.000Z,9.13
2019-02-25T14:22:23.777Z,8.38
2019-02-25T14:27:27.152Z,8.78
2019-02-25T14:32:30.014Z,8.80
2019-02-25T14:37:31.835Z,8.60
2019-02-25T14:42:34.152Z,8.85
2019-02-25T14:47:39.563Z,8.85
2019-02-25T14:52:40.623Z,9.08
2019-02-25T14:57:43.734Z,8.50
2019-02-25T15:02:46.058Z,7.75
2019-02-25T15:07:50.782Z,8.45
2019-02-25T15:12:56.633Z,8.55
2019-02-25T15:17:56.394Z,8.08
2019-02-25T15:22:57.986Z,8.13
2019-02-25T15:27:59.565Z,7.28
2019-02-25T15:33:01.291Z,7.00
2019-02-25T15:38:03.213Z,6.72
2019-02-25T15:43:10.420Z,6.95
2019-02-25T15:48:16.495Z,6.45
2019-02-25T15:53:18.314Z,6.97
2019-02-25T15:58:20.137Z,6.65
2019-02-25T16:03:22.048Z,6.57
2019-02-25T16:08:24.343Z,7.95
2019-02-25T16:13:27.530Z,7.25
2019-02-25T16:18:29.216Z,6.53
2019-02-25T16:23:32.025Z,6.85
2019-02-25T16:28:36.131Z,6.47
2019-02-25T16:33:38.103Z,6.90
2019-02-25T16:38:39.821Z,6.30
2019-02-25T16:43:41.429Z,6.87
2019-02-25T16:48:43.433Z,6.43
2019-02-25T16:53:45.555Z,5.87
2019-02-25T16:58:49.972Z,7.90
2019-02-25T17:03:52.038Z,6.27
2019-02-25T17:08:55.538Z,5.70
2019-02-25T17:13:57.775Z,8.97
2019-02-25T17:19:01.314Z,7.00
2019-02-25T17:24:05.201Z,5.83
2019-02-25T17:29:06.802Z,7.27
2019-02-25T17:34:10.027Z,6.47
2019-02-25T17:39:14.596Z,8.30
2019-02-25T17:44:17.894Z,8.83
2019-02-25T17:49:19.877Z,6.77
2019-02-25T17:54:21.486Z,7.70
2019-02-25T17:59:25.041Z,7.30
2019-02-25T18:04:28.306Z,6.37
2019-02-25T18:09:30.304Z,6.77
2019-02-25T18:14:31.958Z,6.00
2019-02-25T18:19:33.564Z,6.03
2019-02-25T18:24:35.285Z,5.63
2019-02-25T18:29:36.977Z,7.67
2019-02-25T18:34:38.891Z,6.80
2019-02-25T18:39:40.719Z,8.17
2019-02-25T18:44:42.786Z,8.37
2019-02-25T18:49:45.951Z,9.40
2019-02-25T18:54:47.601Z,8.40
2019-02-25T18:59:49.317Z,7.13
2019-02-25T19:04:50.930Z,6.43
2019-02-25T19:09:53.941Z,5.90
2019-02-25T19:14:57.683Z,7.20
2019-02-25T19:19:59.728Z,6.83
2019-02-25T19:25:01.459Z,6.37
2019-02-25T19:30:04.586Z,6.33
2019-02-25T19:35:09.736Z,7.70
2019-02-25T19:40:14.270Z,8.33
2019-02-25T19:45:15.506Z,8.13
2019-02-25T19:50:17.512Z,7.70
2019-02-25T19:55:20.654Z,6.47
2019-02-25T20:00:27.215Z,6.97
2019-02-25T20:05:29.290Z,7.37
2019-02-25T20:10:31.078Z,6.67
2019-02-25T20:15:32.679Z,7.87
2019-02-25T20:20:36.567Z,8.20
2019-02-25T20:25:38.384Z,9.73
2019-02-25T20:30:40.141Z,10.30
2019-02-25T20:35:45.279Z,11.90
2019-02-25T20:40:47.143Z,12.50
2019-02-25T20:45:52.111Z,10.80
2019-02-25T20:50:52.239Z,9.70
2019-02-25T20:55:54.641Z,10.33
2019-02-25T21:00:57.431Z,11.23
2019-02-25T21:05:59.018Z,12.83
2019-02-25T21:11:01.834Z,12.37
2019-02-25T21:16:04.885Z,12.07
2019-02-25T21:21:11.261Z,11.70
2019-02-25T21:26:11.629Z,10.70
2019-02-25T21:31:14.602Z,9.03
2019-02-25T21:36:17.025Z,10.40
2019-02-25T21:41:18.611Z,9.83
2019-02-25T21:46:22.488Z,10.27
2019-02-25T21:51:23.683Z,9.57
2019-02-25T21:56:26.985Z,10.17
2019-02-25T22:01:29.970Z,10.70
2019-02-25T22:06:33.244Z,11.60
2019-02-25T22:11:37.476Z,12.37
2019-02-25T22:16:44.016Z,11.93
2019-02-25T22:21:42.612Z,11.43
2019-02-25T22:26:44.193Z,11.53
2019-02-25T22:31:45.786Z,9.37
2019-02-25T22:36:48.631Z,10.33
2019-02-25T22:41:51.006Z,11.00
2019-02-25T22:46:52.563Z,9.73
2019-02-25T22:51:55.893Z,9.70
2019-02-25T22:56:57.758Z,9.43
2019-02-25T23:01:59.343Z,8.80
2019-02-25T23:07:01.036Z,9.03
2019-02-25T23:12:02.818Z,8.70
2019-02-25T23:17:06.465Z,9.37
2019-02-25T23:22:08.023Z,8.33
2019-02-25T23:27:09.628Z,8.97
2019-02-25T23:32:11.224Z,9.03
2019-02-25T23:37:14.762Z,9.47
2019-02-25T23:42:18.019Z,9.53
2019-02-25T23:47:19.729Z,9.57
2019-02-25T23:52:21.300Z,8.87
2019-02-25T23:57:23.858Z,8.67
